Time;durP1;ratioP1;P1;durP2;ratioP2;P2;SDS_P1;SDS_P2;PMS_P1;PMS_P2;Temp;Humidity;BMP_temperature;BMP_pressure;BME280_temperature;BME280_humidity;BME280_pressure;Samples;Min_cycle;Max_cycle;Signal;HPM_P1;HPM_P2
2023/10/03 00:00:32;;;;;;;41.90;22.73;;;12.30;99.90;;;;;;5074484;28;20204;-67
2023/10/03 00:03:04;;;;;;;36.60;21.73;;;12.30;99.90;;;;;;5074073;28;20727;-67
2023/10/03 00:05:31;;;;;;;35.93;22.10;;;12.30;99.90;;;;;;5074481;28;20207;-67
2023/10/03 00:07:59;;;;;;;35.97;21.83;;;12.40;99.90;;;;;;5074148;28;20241;-68
2023/10/03 00:10:28;;;;;;;36.90;21.37;;;12.30;99.90;;;;;;5074389;28;20197;-67
2023/10/03 00:12:54;;;;;;;37.07;22.03;;;12.20;99.90;;;;;;5074098;28;20280;-67
2023/10/03 00:15:24;;;;;;;40.07;21.67;;;12.20;99.90;;;;;;5074156;28;20209;-67
2023/10/03 00:17:52;;;;;;;38.13;23.20;;;12.20;99.90;;;;;;5074023;28;20197;-67
2023/10/03 00:20:22;;;;;;;40.67;22.47;;;12.10;99.90;;;;;;5074312;28;20197;-67
2023/10/03 00:22:49;;;;;;;35.63;21.17;;;12.10;99.90;;;;;;5074125;28;20193;-67
2023/10/03 00:25:19;;;;;;;38.00;22.80;;;12.10;99.90;;;;;;5074071;28;20205;-67
2023/10/03 00:27:46;;;;;;;36.30;22.93;;;12.20;99.90;;;;;;5074011;28;20208;-67
2023/10/03 00:30:13;;;;;;;40.47;22.53;;;12.20;99.90;;;;;;5073939;28;20280;-67
2023/10/03 00:32:41;;;;;;;38.93;22.90;;;12.10;99.90;;;;;;5073957;28;20197;-67
2023/10/03 00:35:08;;;;;;;36.27;20.93;;;12.10;99.90;;;;;;5073906;28;20267;-67
2023/10/03 00:37:37;;;;;;;40.67;22.83;;;12.10;99.90;;;;;;5073690;28;20623;-67
2023/10/03 00:40:16;;;;;;;37.90;22.40;;;12.10;99.90;;;;;;5073771;28;20279;-67
2023/10/03 00:42:47;;;;;;;35.73;21.03;;;12.00;99.90;;;;;;5073610;28;20219;-67
2023/10/03 00:45:19;;;;;;;36.83;21.90;;;12.00;99.90;;;;;;5073557;28;20652;-67
2023/10/03 00:47:47;;;;;;;37.53;21.37;;;12.00;99.90;;;;;;5073663;28;20607;-67
2023/10/03 00:50:19;;;;;;;35.53;20.90;;;11.90;99.90;;;;;;5073600;28;20247;-67
2023/10/03 00:52:49;;;;;;;38.73;21.90;;;11.90;99.90;;;;;;5073277;28;20649;-67
2023/10/03 00:55:16;;;;;;;35.57;22.00;;;11.90;99.90;;;;;;5073286;28;20220;-67
2023/10/03 00:57:43;;;;;;;38.27;22.07;;;11.90;99.90;;;;;;5073494;28;20197;-67
2023/10/03 01:00:15;;;;;;;37.63;22.17;;;11.80;99.90;;;;;;5073482;28;20287;-67
2023/10/03 01:02:47;;;;;;;35.07;20.87;;;11.70;99.90;;;;;;5073061;28;20376;-67
2023/10/03 01:05:18;;;;;;;37.40;22.40;;;11.70;99.90;;;;;;5073225;28;20200;-67
2023/10/03 01:07:49;;;;;;;35.17;21.70;;;11.70;99.90;;;;;;5072463;28;20279;-67
2023/10/03 01:10:18;;;;;;;37.00;21.47;;;11.70;99.90;;;;;;5073418;28;20238;-67
2023/10/03 01:12:45;;;;;;;40.23;22.47;;;11.70;99.90;;;;;;5073036;28;20197;-67
2023/10/03 01:15:13;;;;;;;38.10;21.90;;;11.80;99.90;;;;;;5073024;28;20307;-68
2023/10/03 01:17:41;;;;;;;39.97;22.77;;;11.80;99.90;;;;;;5072980;28;20537;-67
2023/10/03 01:20:16;;;;;;;37.37;22.00;;;11.70;99.90;;;;;;5072833;28;20628;-67
2023/10/03 01:22:48;;;;;;;37.97;22.57;;;11.60;99.90;;;;;;5073152;28;20200;-65
2023/10/03 01:25:16;;;;;;;40.00;23.07;;;11.70;99.90;;;;;;5073141;28;20292;-66
2023/10/03 01:27:44;;;;;;;34.93;20.93;;;11.60;99.90;;;;;;5072985;28;20216;-66
2023/10/03 01:30:12;;;;;;;37.80;20.73;;;11.60;99.90;;;;;;5072761;28;20193;-67
2023/10/03 01:32:44;;;;;;;37.10;21.77;;;11.50;99.90;;;;;;5072707;28;20284;-67
2023/10/03 01:35:13;;;;;;;38.67;20.87;;;11.50;99.90;;;;;;5072925;28;20229;-68
2023/10/03 01:37:40;;;;;;;35.27;21.47;;;11.60;99.90;;;;;;5072877;28;20270;-67
2023/10/03 01:40:13;;;;;;;35.83;22.13;;;11.50;99.90;;;;;;5072779;28;20251;-67
2023/10/03 01:42:45;;;;;;;37.20;20.60;;;11.50;99.90;;;;;;5072891;28;20225;-67
2023/10/03 01:45:13;;;;;;;40.97;21.97;;;11.50;99.90;;;;;;5072648;28;20205;-67
2023/10/03 01:47:45;;;;;;;37.03;21.37;;;11.40;99.90;;;;;;5072902;28;20200;-67
2023/10/03 01:50:12;;;;;;;37.93;21.37;;;11.40;99.90;;;;;;5072376;28;20203;-67
2023/10/03 01:52:40;;;;;;;35.73;21.03;;;11.50;99.90;;;;;;5072738;28;20333;-66
2023/10/03 01:55:09;;;;;;;34.70;21.40;;;11.40;99.90;;;;;;5072602;28;20217;-67
2023/10/03 01:57:36;;;;;;;35.93;20.80;;;11.40;99.90;;;;;;5072442;28;20201;-67
2023/10/03 02:00:11;;;;;;;34.80;21.77;;;11.30;99.90;;;;;;5072517;28;20201;-67
2023/10/03 02:02:38;;;;;;;39.23;21.83;;;11.30;99.90;;;;;;5072701;28;20295;-67
2023/10/03 02:05:07;;;;;;;42.97;21.90;;;11.40;99.90;;;;;;5072633;28;20196;-67
2023/10/03 02:07:34;;;;;;;34.90;20.87;;;11.40;99.90;;;;;;5072494;28;20200;-67
2023/10/03 02:10:01;;;;;;;34.43;21.10;;;11.30;99.90;;;;;;5072213;28;20551;-67
2023/10/03 02:12:29;;;;;;;39.93;23.03;;;11.30;99.90;;;;;;5072730;28;20204;-67
2023/10/03 02:14:55;;;;;;;41.43;24.77;;;11.20;99.90;;;;;;5072424;28;20228;-67
2023/10/03 02:17:23;;;;;;;41.00;24.33;;;11.30;99.90;;;;;;5072497;28;20549;-67
2023/10/03 02:19:51;;;;;;;40.73;24.40;;;11.30;99.90;;;;;;5072493;28;20205;-66
2023/10/03 02:22:19;;;;;;;43.20;23.73;;;11.20;99.90;;;;;;5072421;28;20258;-66
2023/10/03 02:24:47;;;;;;;38.87;23.37;;;11.20;99.90;;;;;;5072196;28;20710;-66
2023/10/03 02:27:14;;;;;;;45.57;24.13;;;11.20;99.90;;;;;;5072484;28;20213;-67
2023/10/03 02:29:41;;;;;;;45.30;24.87;;;11.10;99.90;;;;;;5072331;28;20197;-66
2023/10/03 02:32:08;;;;;;;40.40;22.60;;;11.10;99.90;;;;;;5072073;28;20656;-66
2023/10/03 02:34:37;;;;;;;46.27;24.73;;;11.10;99.90;;;;;;5072151;28;20217;-66
2023/10/03 02:37:04;;;;;;;40.07;23.67;;;11.00;99.90;;;;;;5072022;28;20679;-67
2023/10/03 02:39:36;;;;;;;47.90;25.10;;;11.10;99.90;;;;;;5072397;28;20286;-66
2023/10/03 02:42:05;;;;;;;44.60;23.83;;;11.10;99.90;;;;;;5071977;28;20584;-67
2023/10/03 02:44:33;;;;;;;46.77;25.73;;;11.10;99.90;;;;;;5072335;28;20201;-66
2023/10/03 02:46:59;;;;;;;40.47;25.80;;;11.00;99.90;;;;;;5072062;28;20258;-67
2023/10/03 02:49:26;;;;;;;44.43;24.90;;;11.00;99.90;;;;;;5072086;28;20553;-66
2023/10/03 02:51:54;;;;;;;43.43;23.87;;;11.00;99.90;;;;;;5071795;28;20255;-66
2023/10/03 02:54:22;;;;;;;43.77;24.60;;;11.00;99.90;;;;;;5072093;28;20225;-67
2023/10/03 02:56:48;;;;;;;47.47;25.90;;;10.90;99.90;;;;;;5072177;28;20201;-66
2023/10/03 02:59:15;;;;;;;42.93;23.77;;;10.90;99.90;;;;;;5071903;28;20205;-66
2023/10/03 03:01:42;;;;;;;48.87;25.90;;;10.80;99.90;;;;;;5072883;28;20200;-66
2023/10/03 03:04:11;;;;;;;42.93;23.43;;;10.80;99.90;;;;;;5075465;28;20630;-66
2023/10/03 03:06:39;;;;;;;41.97;23.83;;;10.80;99.90;;;;;;5075659;28;20612;-66
2023/10/03 03:09:08;;;;;;;41.00;23.50;;;10.70;99.90;;;;;;5075622;28;20197;-67
2023/10/03 03:11:34;;;;;;;44.57;23.50;;;10.70;99.90;;;;;;5075521;28;20327;-66
2023/10/03 03:14:01;;;;;;;39.53;23.87;;;10.90;99.90;;;;;;5075463;28;20243;-66
2023/10/03 03:16:27;;;;;;;38.57;23.90;;;11.00;99.90;;;;;;5075274;28;20197;-66
2023/10/03 03:18:55;;;;;;;43.33;23.97;;;10.80;99.90;;;;;;5075243;28;20205;-66
2023/10/03 03:21:22;;;;;;;41.77;23.80;;;10.90;99.90;;;;;;5075392;28;20296;-67
2023/10/03 03:23:56;;;;;;;45.17;24.57;;;10.90;99.90;;;;;;5075435;28;20236;-66
2023/10/03 03:26:35;;;;;;;44.83;25.13;;;10.90;99.90;;;;;;5075284;28;20283;-66
2023/10/03 03:29:02;;;;;;;42.13;23.50;;;10.80;99.90;;;;;;5075215;28;20287;-66
2023/10/03 03:31:31;;;;;;;41.63;24.13;;;10.90;99.90;;;;;;5075256;28;20204;-69
2023/10/03 03:34:00;;;;;;;42.27;22.70;;;10.70;99.90;;;;;;5075214;28;20196;-66
2023/10/03 03:36:29;;;;;;;39.57;22.53;;;10.70;99.90;;;;;;5075128;28;20246;-66
2023/10/03 03:38:58;;;;;;;42.57;23.50;;;10.60;99.90;;;;;;5075001;28;20197;-66
2023/10/03 03:41:26;;;;;;;41.50;23.23;;;10.60;99.90;;;;;;5074573;28;20274;-66
2023/10/03 03:43:52;;;;;;;43.80;24.97;;;10.60;99.90;;;;;;5074487;28;20620;-65
2023/10/03 03:46:19;;;;;;;44.57;25.20;;;10.70;99.90;;;;;;5075032;28;20259;-66
2023/10/03 03:48:46;;;;;;;45.23;24.27;;;10.60;99.90;;;;;;5074857;28;20293;-65
2023/10/03 03:51:14;;;;;;;41.23;23.60;;;10.60;99.90;;;;;;5074822;28;20200;-66
2023/10/03 03:53:43;;;;;;;43.20;24.97;;;10.50;99.90;;;;;;5074753;28;20204;-66
2023/10/03 03:56:12;;;;;;;45.17;24.67;;;10.50;99.90;;;;;;5074477;28;20785;-66
2023/10/03 03:58:44;;;;;;;51.43;27.40;;;10.50;99.90;;;;;;5074723;28;20272;-66
2023/10/03 04:01:14;;;;;;;47.13;26.73;;;10.50;99.90;;;;;;5074701;28;20197;-66
2023/10/03 04:03:42;;;;;;;46.40;26.50;;;10.50;99.90;;;;;;5074676;28;20251;-66
2023/10/03 04:06:08;;;;;;;47.67;27.00;;;10.50;99.90;;;;;;5074288;28;20648;-66
2023/10/03 04:08:36;;;;;;;45.07;25.17;;;10.50;99.90;;;;;;5074292;28;20219;-66
2023/10/03 04:11:03;;;;;;;46.90;26.00;;;10.40;99.90;;;;;;5074393;28;20287;-66
2023/10/03 04:13:30;;;;;;;47.80;25.83;;;10.50;99.90;;;;;;5073993;28;20668;-66
2023/10/03 04:16:02;;;;;;;49.03;26.27;;;10.40;99.90;;;;;;5074552;28;20225;-66
2023/10/03 04:18:28;;;;;;;42.40;25.27;;;10.50;99.90;;;;;;5074246;28;20197;-66
2023/10/03 04:20:55;;;;;;;47.30;25.20;;;10.50;99.90;;;;;;5074220;28;20201;-66
2023/10/03 04:23:21;;;;;;;48.87;27.33;;;10.40;99.90;;;;;;5074098;28;20247;-66
2023/10/03 04:25:48;;;;;;;48.87;25.17;;;10.40;99.90;;;;;;5074184;28;20200;-66
2023/10/03 04:28:17;;;;;;;51.43;28.10;;;10.40;99.90;;;;;;5073923;28;20556;-66
2023/10/03 04:30:43;;;;;;;47.73;27.10;;;10.40;99.90;;;;;;5074170;28;20287;-67
2023/10/03 04:33:17;;;;;;;53.40;27.87;;;10.40;99.90;;;;;;5074018;28;20620;-67
2023/10/03 04:35:43;;;;;;;53.70;27.23;;;10.40;99.90;;;;;;5074810;28;20236;-67
2023/10/03 04:38:14;;;;;;;51.00;25.73;;;10.50;99.90;;;;;;5076849;28;20200;-67
2023/10/03 04:40:41;;;;;;;47.50;25.70;;;10.50;99.90;;;;;;5076940;28;20265;-67
2023/10/03 04:43:11;;;;;;;46.13;25.33;;;10.40;99.90;;;;;;5074584;28;20220;-66
2023/10/03 04:45:37;;;;;;;46.20;25.40;;;10.40;99.90;;;;;;5073657;28;20219;-66
2023/10/03 04:48:04;;;;;;;46.77;25.90;;;10.50;99.90;;;;;;5073569;28;20208;-66
2023/10/03 04:50:34;;;;;;;44.17;25.63;;;10.50;99.90;;;;;;5073441;28;20197;-67
2023/10/03 04:53:02;;;;;;;48.67;24.50;;;10.50;99.90;;;;;;5073720;28;20259;-67
2023/10/03 04:55:28;;;;;;;45.73;24.80;;;10.40;99.90;;;;;;5073303;28;20627;-67
2023/10/03 04:57:55;;;;;;;48.23;25.50;;;10.40;99.90;;;;;;5060466;28;20253;-67
2023/10/03 05:00:23;;;;;;;50.63;26.57;;;10.50;99.90;;;;;;5053250;28;20201;-67
2023/10/03 05:02:52;;;;;;;45.97;25.17;;;10.50;99.90;;;;;;5053020;28;20256;-67
2023/10/03 05:05:21;;;;;;;51.30;26.53;;;10.50;99.90;;;;;;5053258;28;20202;-67
2023/10/03 05:07:50;;;;;;;52.67;26.73;;;10.40;99.90;;;;;;5053124;28;20672;-67
2023/10/03 05:10:19;;;;;;;49.67;25.23;;;10.50;99.90;;;;;;5053083;28;20202;-67
2023/10/03 05:12:46;;;;;;;56.03;27.33;;;10.50;99.90;;;;;;5053019;28;20227;-67
2023/10/03 05:15:14;;;;;;;41.13;24.73;;;10.50;99.90;;;;;;5053050;28;20217;-67
2023/10/03 05:17:41;;;;;;;49.40;26.90;;;10.50;99.90;;;;;;5053041;28;20202;-67
2023/10/03 05:20:09;;;;;;;48.47;25.20;;;10.50;99.90;;;;;;5053193;28;20288;-67
2023/10/03 05:22:36;;;;;;;46.20;25.00;;;10.50;99.90;;;;;;5052992;28;20249;-67
2023/10/03 05:25:07;;;;;;;46.13;25.70;;;10.50;99.90;;;;;;5052449;28;20205;-67
2023/10/03 05:27:34;;;;;;;47.67;25.50;;;10.60;99.90;;;;;;5052941;28;20202;-67
2023/10/03 05:30:04;;;;;;;50.57;25.60;;;10.50;99.90;;;;;;5052689;28;20272;-67
2023/10/03 05:32:31;;;;;;;44.57;25.57;;;10.60;99.90;;;;;;5052750;28;20657;-67
2023/10/03 05:34:59;;;;;;;51.30;26.27;;;10.60;99.90;;;;;;5052733;28;20213;-67
2023/10/03 05:37:26;;;;;;;45.23;25.13;;;10.60;99.90;;;;;;5052874;28;20193;-67
2023/10/03 05:39:57;;;;;;;50.80;27.53;;;10.70;99.90;;;;;;5052773;28;20260;-67
2023/10/03 05:42:26;;;;;;;53.57;27.90;;;10.80;99.90;;;;;;5070881;28;20260;-68
2023/10/03 05:44:54;;;;;;;49.93;27.20;;;10.90;99.90;;;;;;5072694;28;20208;-67
2023/10/03 05:47:21;;;;;;;51.87;26.47;;;10.90;99.90;;;;;;5072642;28;20656;-67
2023/10/03 05:49:47;;;;;;;45.77;26.03;;;11.00;99.90;;;;;;5072692;28;20200;-67
2023/10/03 05:52:16;;;;;;;51.33;26.33;;;11.00;99.90;;;;;;5072706;28;20603;-67
2023/10/03 05:54:43;;;;;;;45.83;25.77;;;11.10;99.90;;;;;;5072498;28;20640;-67
2023/10/03 05:57:09;;;;;;;49.77;26.43;;;11.20;99.90;;;;;;5072280;28;20201;-67
2023/10/03 05:59:37;;;;;;;48.60;26.17;;;11.20;99.90;;;;;;5072832;28;20262;-67
2023/10/03 06:02:04;;;;;;;51.83;27.10;;;11.30;99.90;;;;;;5072656;28;20197;-67
2023/10/03 06:04:35;;;;;;;51.87;28.33;;;11.40;99.90;;;;;;5072385;28;20196;-68
2023/10/03 06:07:04;;;;;;;53.17;26.30;;;11.60;99.90;;;;;;5072498;28;20652;-67
2023/10/03 06:09:30;;;;;;;48.87;25.47;;;11.70;99.90;;;;;;5072476;28;20197;-66
2023/10/03 06:11:57;;;;;;;49.50;26.83;;;11.70;99.90;;;;;;5072374;28;20204;-66
2023/10/03 06:14:24;;;;;;;51.97;26.83;;;11.80;99.90;;;;;;5072526;28;20260;-66
2023/10/03 06:16:52;;;;;;;47.33;26.23;;;12.00;99.90;;;;;;5072436;28;20626;-66
2023/10/03 06:19:19;;;;;;;48.57;26.17;;;12.10;99.90;;;;;;5072201;28;20197;-66
2023/10/03 06:21:46;;;;;;;42.43;25.23;;;12.20;99.90;;;;;;5072264;28;20201;-68
2023/10/03 06:24:14;;;;;;;46.20;26.53;;;12.40;99.90;;;;;;5072231;28;20232;-67
2023/10/03 06:26:44;;;;;;;46.57;26.17;;;12.60;99.90;;;;;;5072442;28;20201;-67
2023/10/03 06:29:11;;;;;;;43.97;24.67;;;12.80;99.90;;;;;;5072439;28;20534;-67
2023/10/03 06:31:38;;;;;;;41.43;23.97;;;12.90;99.90;;;;;;5072064;28;20295;-67
2023/10/03 06:34:06;;;;;;;45.20;25.20;;;13.00;99.90;;;;;;5072303;28;20201;-67
2023/10/03 06:36:33;;;;;;;41.00;23.70;;;13.10;99.90;;;;;;5074269;28;20832;-67
2023/10/03 06:39:00;;;;;;;37.37;23.63;;;13.20;99.90;;;;;;5075967;28;20197;-67
2023/10/03 06:41:27;;;;;;;37.97;22.67;;;13.30;99.90;;;;;;5075832;28;20243;-67
2023/10/03 06:43:53;;;;;;;37.57;22.07;;;13.40;99.90;;;;;;5075961;28;20537;-67
2023/10/03 06:46:20;;;;;;;37.27;23.20;;;13.50;99.90;;;;;;5075878;28;20200;-67
2023/10/03 06:48:47;;;;;;;36.03;21.87;;;13.60;99.90;;;;;;5075593;28;20209;-67
2023/10/03 06:51:16;;;;;;;36.33;22.10;;;13.60;99.90;;;;;;5075656;28;20192;-67
2023/10/03 06:53:46;;;;;;;37.27;23.30;;;13.60;99.90;;;;;;5075650;28;20232;-67
2023/10/03 06:56:13;;;;;;;37.53;22.33;;;13.60;99.90;;;;;;5075758;28;20229;-67
2023/10/03 06:58:40;;;;;;;36.87;22.43;;;13.70;99.90;;;;;;5075704;28;20205;-67
2023/10/03 07:01:07;;;;;;;38.07;22.53;;;13.80;99.90;;;;;;5075553;28;20205;-67
2023/10/03 07:03:35;;;;;;;37.53;23.33;;;13.90;99.90;;;;;;5075471;28;20779;-67
2023/10/03 07:06:02;;;;;;;40.43;24.07;;;14.10;99.90;;;;;;5075454;28;20216;-67
2023/10/03 07:08:30;;;;;;;36.10;21.97;;;14.30;99.90;;;;;;5075636;28;20228;-70
2023/10/03 07:10:57;;;;;;;36.80;22.47;;;14.60;99.90;;;;;;5075458;28;20197;-67
2023/10/03 07:13:24;;;;;;;46.50;28.17;;;14.90;99.90;;;;;;5075515;28;20297;-67
2023/10/03 07:15:50;;;;;;;35.78;23.40;;;15.10;99.90;;;;;;5075357;28;20228;-67
2023/10/03 07:18:18;;;;;;;33.88;21.02;;;15.40;99.90;;;;;;5074487;28;20197;-67
2023/10/03 07:20:45;;;;;;;32.67;20.70;;;15.60;99.90;;;;;;5075241;28;20200;-68
2023/10/03 07:23:12;;;;;;;34.05;21.00;;;16.00;99.90;;;;;;5075279;28;20295;-67
2023/10/03 07:25:39;;;;;;;25.75;16.70;;;16.20;99.90;;;;;;5075196;28;20267;-68
2023/10/03 07:28:07;;;;;;;24.00;15.95;;;16.60;99.90;;;;;;5075034;28;20212;-67
2023/10/03 07:30:34;;;;;;;30.15;17.50;;;16.90;99.90;;;;;;5074895;28;20715;-67
2023/10/03 07:33:00;;;;;;;25.95;16.63;;;17.10;99.90;;;;;;5074691;28;20715;-67
2023/10/03 07:35:28;;;;;;;26.30;16.20;;;17.40;99.90;;;;;;5074991;28;20193;-67
2023/10/03 07:37:57;;;;;;;25.30;16.70;;;17.70;99.90;;;;;;5075138;28;20204;-68
2023/10/03 07:40:27;;;;;;;23.30;15.70;;;18.00;99.90;;;;;;5074832;28;20197;-68
2023/10/03 07:42:55;;;;;;;21.58;14.77;;;18.30;99.90;;;;;;5074889;28;20201;-67
2023/10/03 07:45:22;;;;;;;19.95;13.38;;;18.70;99.90;;;;;;5074572;28;20256;-68
2023/10/03 07:47:50;;;;;;;18.58;12.75;;;19.10;99.90;;;;;;5073792;28;20622;-67
2023/10/03 07:50:18;;;;;;;17.70;12.60;;;19.30;99.90;;;;;;5074916;28;20258;-68
2023/10/03 07:52:48;;;;;;;22.90;12.85;;;19.60;99.90;;;;;;5074605;28;20193;-67
2023/10/03 07:55:15;;;;;;;17.52;11.98;;;19.90;99.90;;;;;;5074863;28;20274;-67
2023/10/03 07:57:42;;;;;;;16.88;12.20;;;20.20;99.90;;;;;;5074508;28;20330;-68
2023/10/03 08:00:20;;;;;;;19.45;12.40;;;20.40;99.90;;;;;;5074430;28;20293;-68
2023/10/03 08:02:49;;;;;;;20.08;12.30;;;20.50;99.90;;;;;;5074523;28;20291;-67
2023/10/03 08:05:16;;;;;;;17.48;10.93;;;20.80;99.90;;;;;;5074596;28;20197;-67
2023/10/03 08:07:47;;;;;;;18.25;11.45;;;21.10;99.90;;;;;;5074453;28;20209;-68
2023/10/03 08:10:15;;;;;;;13.40;9.85;;;21.30;99.90;;;;;;5074280;28;20205;-67
2023/10/03 08:12:41;;;;;;;14.30;10.00;;;21.60;99.90;;;;;;5074155;28;20220;-67
2023/10/03 08:15:17;;;;;;;13.75;9.77;;;21.70;99.90;;;;;;5074347;28;20201;-68
2023/10/03 08:17:48;;;;;;;13.68;9.70;;;21.90;99.90;;;;;;5074354;28;20282;-68
2023/10/03 08:20:16;;;;;;;17.85;10.02;;;22.10;99.90;;;;;;5074273;28;20338;-68
2023/10/03 08:22:42;;;;;;;13.75;8.85;;;22.40;99.90;;;;;;5074061;28;20677;-68
2023/10/03 08:25:10;;;;;;;12.57;8.73;;;22.50;99.60;;;;;;5073924;28;20231;-68
2023/10/03 08:27:36;;;;;;;13.02;9.45;;;22.60;99.20;;;;;;5073954;28;20593;-69
2023/10/03 08:30:04;;;;;;;16.83;9.55;;;22.80;98.70;;;;;;5074071;28;20200;-68
2023/10/03 08:32:32;;;;;;;13.65;9.82;;;23.00;98.10;;;;;;5073725;28;20197;-68
2023/10/03 08:34:59;;;;;;;13.75;9.57;;;23.00;97.40;;;;;;5073863;28;20279;-68
2023/10/03 08:37:26;;;;;;;11.55;8.93;;;23.10;97.10;;;;;;5073523;28;20217;-68
2023/10/03 08:39:53;;;;;;;12.05;8.68;;;23.30;96.60;;;;;;5073330;28;20653;-68
2023/10/03 08:42:34;;;;;;;12.68;8.80;;;23.20;95.80;;;;;;5073530;28;20295;-68
2023/10/03 08:45:16;;;;;;;11.52;9.02;;;23.30;95.40;;;;;;5073712;28;20193;-68
2023/10/03 08:47:47;;;;;;;11.93;8.68;;;23.50;95.30;;;;;;5073583;28;20665;-69
2023/10/03 08:50:33;;;;;;;14.45;9.02;;;23.70;94.80;;;;;;5073756;28;20216;-68
2023/10/03 08:53:12;;;;;;;9.55;8.40;;;23.90;94.30;;;;;;5073521;28;20251;-68
2023/10/03 08:55:43;;;;;;;12.98;8.82;;;23.90;93.90;;;;;;5073546;28;20243;-68
2023/10/03 08:58:13;;;;;;;12.50;8.25;;;23.80;93.70;;;;;;5068676;28;20200;-68
2023/10/03 09:00:43;;;;;;;13.82;8.90;;;24.00;93.50;;;;;;5069034;28;20259;-68
2023/10/03 09:03:13;;;;;;;13.43;8.50;;;24.00;92.90;;;;;;5069944;28;20618;-69
2023/10/03 09:05:41;;;;;;;12.60;9.02;;;24.20;92.90;;;;;;5070000;28;20306;-69
2023/10/03 09:08:09;;;;;;;10.60;7.80;;;24.60;92.50;;;;;;5070869;28;20204;-68
2023/10/03 09:10:42;;;;;;;12.07;8.50;;;24.60;92.40;;;;;;5072237;28;20200;-68
2023/10/03 09:13:23;;;;;;;9.77;8.05;;;24.80;91.80;;;;;;5073088;28;20681;-68
2023/10/03 09:15:51;;;;;;;14.15;8.55;;;24.90;91.40;;;;;;5073317;28;20205;-69
2023/10/03 09:18:21;;;;;;;11.48;7.80;;;24.90;91.10;;;;;;5073166;28;20619;-68
2023/10/03 09:20:52;;;;;;;10.73;7.90;;;24.90;91.30;;;;;;5073232;28;20200;-69
2023/10/03 09:23:18;;;;;;;10.20;7.68;;;24.90;90.90;;;;;;5073028;28;20628;-68
2023/10/03 09:25:52;;;;;;;10.27;8.45;;;25.00;90.80;;;;;;5071917;28;20205;-69
2023/10/03 09:28:19;;;;;;;11.52;7.68;;;25.50;90.40;;;;;;5071296;28;20287;-69
2023/10/03 09:30:45;;;;;;;10.60;7.43;;;26.10;89.40;;;;;;5083801;28;20204;-69
2023/10/03 09:33:13;;;;;;;8.73;7.00;;;26.50;88.40;;;;;;5072354;28;20207;-69
2023/10/03 09:35:39;;;;;;;10.25;6.53;;;26.50;87.10;;;;;;5072461;28;20237;-69
2023/10/03 09:38:09;;;;;;;9.88;6.90;;;26.10;87.10;;;;;;5072336;28;20217;-69
2023/10/03 09:40:49;;;;;;;8.55;7.13;;;26.00;87.10;;;;;;5072446;28;20217;-69
2023/10/03 09:43:17;;;;;;;13.00;7.55;;;25.80;87.20;;;;;;5072776;28;20236;-69
2023/10/03 09:45:46;;;;;;;10.88;7.63;;;25.90;88.20;;;;;;5072734;28;20280;-69
2023/10/03 09:48:15;;;;;;;8.90;6.72;;;25.90;88.70;;;;;;5072686;28;20200;-68
2023/10/03 09:50:51;;;;;;;13.52;6.82;;;25.40;89.60;;;;;;5072828;28;20390;-68
2023/10/03 09:53:27;;;;;;;9.90;7.07;;;25.30;90.20;;;;;;5072782;28;20207;-68
2023/10/03 09:55:55;;;;;;;11.65;7.10;;;25.00;90.60;;;;;;5072657;28;20231;-69
2023/10/03 09:58:25;;;;;;;12.73;7.07;;;24.90;90.80;;;;;;5054504;28;20229;-71
2023/10/03 10:00:53;;;;;;;9.55;6.63;;;25.00;91.10;;;;;;5056401;28;20720;-68
2023/10/03 10:03:26;;;;;;;14.05;6.88;;;25.40;91.00;;;;;;5050262;28;20201;-68
2023/10/03 10:06:04;;;;;;;10.80;6.95;;;25.40;91.10;;;;;;5050910;28;20307;-68
2023/10/03 10:08:41;;;;;;;8.05;7.03;;;25.60;90.60;;;;;;5051876;28;20197;-68
2023/10/03 10:11:09;;;;;;;10.18;6.97;;;25.50;90.50;;;;;;5053993;28;20201;-68
2023/10/03 10:13:41;;;;;;;9.00;6.32;;;25.40;90.70;;;;;;5056211;28;20193;-68
2023/10/03 10:16:13;;;;;;;14.75;7.60;;;25.90;90.60;;;;;;5054662;28;20201;-67
2023/10/03 10:19:00;;;;;;;12.02;6.97;;;26.00;90.10;;;;;;5054582;28;20224;-71
2023/10/03 10:21:31;;;;;;;9.55;6.22;;;25.80;90.70;;;;;;5054479;28;20194;-68
2023/10/03 10:24:24;;;;;;;7.50;6.30;;;25.60;90.40;;;;;;5054199;28;20233;-67
2023/10/03 10:26:53;;;;;;;9.43;6.32;;;25.80;90.80;;;;;;5054239;28;20831;-66
2023/10/03 10:29:21;;;;;;;9.73;7.10;;;26.40;90.10;;;;;;5054167;28;20693;-68
2023/10/03 10:31:57;;;;;;;8.45;6.32;;;26.90;89.50;;;;;;5054185;28;20205;-70
2023/10/03 10:34:46;;;;;;;6.50;5.82;;;27.10;87.60;;;;;;5054642;28;20209;-68
2023/10/03 10:37:17;;;;;;;10.52;6.43;;;26.70;88.40;;;;;;5055721;28;20715;-68
2023/10/03 10:40:21;;;;;;;9.85;6.70;;;26.50;89.10;;;;;;5056296;28;20197;-68
2023/10/03 10:43:04;;;;;;;6.97;5.90;;;27.40;86.90;;;;;;5056310;28;20190;-68
2023/10/03 10:45:37;;;;;;;9.65;6.55;;;28.20;85.50;;;;;;5056216;28;20202;-68
2023/10/03 10:48:05;;;;;;;10.15;7.18;;;28.00;83.90;;;;;;5056185;28;20197;-68
2023/10/03 10:51:07;;;;;;;10.77;7.03;;;28.80;82.80;;;;;;5055944;28;20193;-68
2023/10/03 10:53:38;;;;;;;9.70;7.05;;;29.30;80.60;;;;;;5056151;28;20244;-68
2023/10/03 10:56:09;;;;;;;10.02;6.82;;;29.00;80.50;;;;;;5055958;28;20284;-68
2023/10/03 10:58:53;;;;;;;8.90;6.13;;;28.20;81.10;;;;;;5055678;28;20252;-68
2023/10/03 11:01:21;;;;;;;9.95;6.18;;;29.30;79.20;;;;;;5055660;28;20197;-68
2023/10/03 11:03:48;;;;;;;8.45;6.55;;;30.00;78.00;;;;;;5055749;28;20201;-68
2023/10/03 11:06:16;;;;;;;12.35;7.88;;;30.70;76.30;;;;;;5055858;28;20202;-69
2023/10/03 11:08:49;;;;;;;8.80;7.25;;;30.90;73.40;;;;;;5055773;28;20547;-69
2023/10/03 11:11:19;;;;;;;9.23;6.63;;;30.80;74.00;;;;;;5055515;28;20205;-69
2023/10/03 11:13:48;;;;;;;7.90;6.43;;;30.80;72.40;;;;;;5055458;28;20677;-69
2023/10/03 11:16:28;;;;;;;8.27;6.38;;;31.20;71.30;;;;;;5055743;28;20197;-69
2023/10/03 11:18:56;;;;;;;9.25;6.82;;;30.90;70.10;;;;;;5055460;28;20681;-69
2023/10/03 11:21:24;;;;;;;7.60;6.72;;;29.50;71.00;;;;;;5055344;28;20229;-68
2023/10/03 11:24:10;;;;;;;6.88;5.97;;;28.90;73.00;;;;;;5054431;28;20194;-68
2023/10/03 11:26:59;;;;;;;8.68;6.55;;;29.00;73.50;;;;;;5055461;28;20206;-68
2023/10/03 11:29:37;;;;;;;9.43;6.18;;;28.40;73.90;;;;;;5050590;28;20225;-68
2023/10/03 11:32:04;;;;;;;8.52;6.35;;;28.20;75.60;;;;;;5055255;28;20201;-67
2023/10/03 11:34:33;;;;;;;11.77;6.25;;;27.40;75.60;;;;;;5055029;28;20221;-68
2023/10/03 11:37:02;;;;;;;6.88;6.10;;;26.90;77.00;;;;;;5055222;28;20308;-66
2023/10/03 11:39:29;;;;;;;7.45;6.65;;;26.90;77.90;;;;;;5055037;28;20671;-67
2023/10/03 11:41:56;;;;;;;9.93;6.47;;;27.00;77.90;;;;;;5054783;28;20642;-67
2023/10/03 11:44:27;;;;;;;9.18;6.40;;;27.10;77.80;;;;;;5054965;28;20202;-67
2023/10/03 11:46:54;;;;;;;10.00;6.43;;;27.30;76.00;;;;;;5055042;28;20248;-68
2023/10/03 11:49:20;;;;;;;7.03;6.18;;;27.80;75.90;;;;;;5054718;28;20232;-67
2023/10/03 11:51:47;;;;;;;8.63;6.05;;;28.20;75.10;;;;;;5054829;28;20201;-68
2023/10/03 11:54:15;;;;;;;7.72;6.35;;;27.70;75.20;;;;;;5054971;28;20210;-68
2023/10/03 11:56:44;;;;;;;7.00;6.30;;;28.00;74.70;;;;;;5054799;28;20197;-68
2023/10/03 11:59:14;;;;;;;8.57;5.85;;;27.80;74.50;;;;;;5054532;28;20604;-68
2023/10/03 12:01:43;;;;;;;11.60;6.88;;;27.80;74.70;;;;;;5054500;28;20201;-68
2023/10/03 12:04:11;;;;;;;10.25;6.93;;;27.40;74.80;;;;;;5054218;28;20612;-68
2023/10/03 12:06:38;;;;;;;8.63;6.68;;;27.60;74.90;;;;;;5054662;28;20260;-68
2023/10/03 12:09:08;;;;;;;11.98;6.35;;;27.10;75.30;;;;;;5054644;28;20216;-68
2023/10/03 12:11:36;;;;;;;7.90;6.32;;;27.00;76.30;;;;;;5054621;28;20228;-68
2023/10/03 12:14:03;;;;;;;8.32;7.00;;;27.00;77.20;;;;;;5054359;28;20201;-67
2023/10/03 12:16:29;;;;;;;7.95;6.90;;;27.00;75.30;;;;;;5054199;28;20272;-68
2023/10/03 12:18:57;;;;;;;7.50;5.70;;;27.00;74.40;;;;;;5054399;28;20631;-68
2023/10/03 12:21:25;;;;;;;11.07;6.05;;;27.10;73.30;;;;;;5054655;28;20577;-67
2023/10/03 12:23:51;;;;;;;9.57;6.90;;;27.20;73.20;;;;;;5054239;28;20208;-68
2023/10/03 12:26:18;;;;;;;7.90;6.43;;;27.30;73.50;;;;;;5054020;28;20715;-68
2023/10/03 12:28:44;;;;;;;9.52;6.90;;;27.20;73.40;;;;;;5054055;28;20201;-68
2023/10/03 12:31:11;;;;;;;9.68;6.82;;;26.80;74.40;;;;;;5053917;28;20596;-68
2023/10/03 12:33:38;;;;;;;10.25;7.38;;;26.70;74.70;;;;;;5053992;28;20252;-68
2023/10/03 12:36:06;;;;;;;9.23;6.40;;;26.70;75.00;;;;;;5053841;28;20539;-68
2023/10/03 12:38:32;;;;;;;11.07;7.07;;;26.70;75.00;;;;;;5053866;28;20260;-68
2023/10/03 12:41:01;;;;;;;9.65;6.20;;;26.60;75.70;;;;;;5053454;28;20712;-67
2023/10/03 12:43:27;;;;;;;7.88;6.88;;;26.50;77.50;;;;;;5053788;28;20257;-68